sensor_id;sensor_type;location;lat;lon;timestamp;temperature;humidity
24618;DHT22;12762;51.730;5.356;2023-02-28T00:01:08;1.50;64.40
24618;DHT22;12762;51.730;5.356;2023-02-28T00:03:35;1.60;64.50
24618;DHT22;12762;51.730;5.356;2023-02-28T00:06:03;1.50;64.50
24618;DHT22;12762;51.730;5.356;2023-02-28T00:08:30;1.50;64.60
24618;DHT22;12762;51.730;5.356;2023-02-28T00:11:04;1.50;64.60
24618;DHT22;12762;51.730;5.356;2023-02-28T00:13:31;1.50;64.70
24618;DHT22;12762;51.730;5.356;2023-02-28T00:16:13;1.50;64.80
24618;DHT22;12762;51.730;5.356;2023-02-28T00:18:41;1.40;64.80
24618;DHT22;12762;51.730;5.356;2023-02-28T00:21:09;1.40;64.80
24618;DHT22;12762;51.730;5.356;2023-02-28T00:23:36;1.40;64.80
24618;DHT22;12762;51.730;5.356;2023-02-28T00:26:03;1.40;64.90
24618;DHT22;12762;51.730;5.356;2023-02-28T00:28:30;1.40;65.00
24618;DHT22;12762;51.730;5.356;2023-02-28T00:30:57;1.40;65.00
24618;DHT22;12762;51.730;5.356;2023-02-28T00:33:24;1.40;65.10
24618;DHT22;12762;51.730;5.356;2023-02-28T00:36:10;1.30;65.10
24618;DHT22;12762;51.730;5.356;2023-02-28T00:38:40;1.30;65.20
24618;DHT22;12762;51.730;5.356;2023-02-28T00:41:14;1.30;65.30
24618;DHT22;12762;51.730;5.356;2023-02-28T00:43:41;1.30;65.30
24618;DHT22;12762;51.730;5.356;2023-02-28T00:46:08;1.30;65.30
24618;DHT22;12762;51.730;5.356;2023-02-28T00:48:36;1.40;65.30
24618;DHT22;12762;51.730;5.356;2023-02-28T00:51:03;1.40;66.20
24618;DHT22;12762;51.730;5.356;2023-02-28T00:53:30;1.40;65.40
24618;DHT22;12762;51.730;5.356;2023-02-28T00:55:59;1.40;65.40
24618;DHT22;12762;51.730;5.356;2023-02-28T00:58:25;1.50;65.50
24618;DHT22;12762;51.730;5.356;2023-02-28T01:00:53;1.50;65.60
24618;DHT22;12762;51.730;5.356;2023-02-28T01:03:21;1.50;65.50
24618;DHT22;12762;51.730;5.356;2023-02-28T01:05:49;1.50;65.50
24618;DHT22;12762;51.730;5.356;2023-02-28T01:08:16;1.50;65.50
24618;DHT22;12762;51.730;5.356;2023-02-28T01:10:42;1.50;65.50
24618;DHT22;12762;51.730;5.356;2023-02-28T01:13:12;1.50;65.50
24618;DHT22;12762;51.730;5.356;2023-02-28T01:15:46;1.50;65.50
24618;DHT22;12762;51.730;5.356;2023-02-28T01:18:15;1.50;65.60
24618;DHT22;12762;51.730;5.356;2023-02-28T01:20:45;1.50;65.60
24618;DHT22;12762;51.730;5.356;2023-02-28T01:23:12;1.50;65.50
24618;DHT22;12762;51.730;5.356;2023-02-28T01:25:39;1.50;65.50
24618;DHT22;12762;51.730;5.356;2023-02-28T01:28:06;1.50;65.50
24618;DHT22;12762;51.730;5.356;2023-02-28T01:30:36;1.50;65.60
24618;DHT22;12762;51.730;5.356;2023-02-28T01:33:03;1.50;65.80
24618;DHT22;12762;51.730;5.356;2023-02-28T01:35:33;1.50;65.70
24618;DHT22;12762;51.730;5.356;2023-02-28T01:38:01;1.50;65.80
24618;DHT22;12762;51.730;5.356;2023-02-28T01:40:46;1.50;65.80
24618;DHT22;12762;51.730;5.356;2023-02-28T01:43:28;1.50;65.80
24618;DHT22;12762;51.730;5.356;2023-02-28T01:45:56;1.50;65.90
24618;DHT22;12762;51.730;5.356;2023-02-28T01:48:32;1.60;66.00
24618;DHT22;12762;51.730;5.356;2023-02-28T01:51:06;1.60;66.00
24618;DHT22;12762;51.730;5.356;2023-02-28T01:53:41;1.60;66.00
24618;DHT22;12762;51.730;5.356;2023-02-28T01:56:11;1.60;66.00
24618;DHT22;12762;51.730;5.356;2023-02-28T01:58:42;1.70;66.00
24618;DHT22;12762;51.730;5.356;2023-02-28T02:01:12;1.70;66.00
24618;DHT22;12762;51.730;5.356;2023-02-28T02:04:00;1.70;66.00
24618;DHT22;12762;51.730;5.356;2023-02-28T02:06:36;1.80;66.20
24618;DHT22;12762;51.730;5.356;2023-02-28T02:09:04;1.80;66.10
24618;DHT22;12762;51.730;5.356;2023-02-28T02:11:31;1.80;66.00
24618;DHT22;12762;51.730;5.356;2023-02-28T02:16:59;1.90;66.30
24618;DHT22;12762;51.730;5.356;2023-02-28T02:36:13;2.00;66.20
24618;DHT22;12762;51.730;5.356;2023-02-28T02:38:51;2.00;66.20
24618;DHT22;12762;51.730;5.356;2023-02-28T02:41:36;2.00;66.30
24618;DHT22;12762;51.730;5.356;2023-02-28T02:44:25;2.10;66.50
24618;DHT22;12762;51.730;5.356;2023-02-28T02:47:14;2.10;66.40
24618;DHT22;12762;51.730;5.356;2023-02-28T02:50:08;2.10;66.40
24618;DHT22;12762;51.730;5.356;2023-02-28T02:52:44;2.10;66.40
24618;DHT22;12762;51.730;5.356;2023-02-28T02:55:15;2.10;66.50
24618;DHT22;12762;51.730;5.356;2023-02-28T02:57:48;2.20;66.70
24618;DHT22;12762;51.730;5.356;2023-02-28T03:00:19;2.20;66.70
24618;DHT22;12762;51.730;5.356;2023-02-28T03:02:49;2.20;66.70
24618;DHT22;12762;51.730;5.356;2023-02-28T03:05:25;2.30;66.90
24618;DHT22;12762;51.730;5.356;2023-02-28T03:07:53;2.30;66.90
24618;DHT22;12762;51.730;5.356;2023-02-28T03:10:48;2.30;66.90
24618;DHT22;12762;51.730;5.356;2023-02-28T03:21:42;2.40;67.10
24618;DHT22;12762;51.730;5.356;2023-02-28T03:24:34;2.40;67.10
24618;DHT22;12762;51.730;5.356;2023-02-28T03:27:09;2.40;67.10
24618;DHT22;12762;51.730;5.356;2023-02-28T03:29:54;2.50;67.20
24618;DHT22;12762;51.730;5.356;2023-02-28T03:33:11;2.40;67.10
24618;DHT22;12762;51.730;5.356;2023-02-28T03:35:24;2.50;67.20
24618;DHT22;12762;51.730;5.356;2023-02-28T03:38:09;2.50;67.20
24618;DHT22;12762;51.730;5.356;2023-02-28T03:40:45;2.50;67.20
24618;DHT22;12762;51.730;5.356;2023-02-28T03:43:19;2.50;67.30
24618;DHT22;12762;51.730;5.356;2023-02-28T03:45:50;2.50;67.30
24618;DHT22;12762;51.730;5.356;2023-02-28T03:48:31;2.50;67.30
24618;DHT22;12762;51.730;5.356;2023-02-28T03:50:59;2.50;67.40
24618;DHT22;12762;51.730;5.356;2023-02-28T03:53:40;2.50;67.30
24618;DHT22;12762;51.730;5.356;2023-02-28T03:58:56;2.60;67.60
24618;DHT22;12762;51.730;5.356;2023-02-28T04:04:02;2.60;67.60
24618;DHT22;12762;51.730;5.356;2023-02-28T04:06:31;2.60;67.70
24618;DHT22;12762;51.730;5.356;2023-02-28T04:08:58;2.60;67.80
24618;DHT22;12762;51.730;5.356;2023-02-28T04:11:36;2.60;68.60
24618;DHT22;12762;51.730;5.356;2023-02-28T04:14:05;2.60;67.80
24618;DHT22;12762;51.730;5.356;2023-02-28T04:16:33;2.60;67.80
24618;DHT22;12762;51.730;5.356;2023-02-28T04:19:05;2.60;67.80
24618;DHT22;12762;51.730;5.356;2023-02-28T04:21:35;2.60;67.90
24618;DHT22;12762;51.730;5.356;2023-02-28T04:24:03;2.60;67.90
24618;DHT22;12762;51.730;5.356;2023-02-28T04:26:34;2.60;67.90
24618;DHT22;12762;51.730;5.356;2023-02-28T04:29:04;2.60;68.00
24618;DHT22;12762;51.730;5.356;2023-02-28T04:31:32;2.60;68.00
24618;DHT22;12762;51.730;5.356;2023-02-28T04:34:00;2.50;68.00
24618;DHT22;12762;51.730;5.356;2023-02-28T04:36:27;2.50;68.00
24618;DHT22;12762;51.730;5.356;2023-02-28T04:38:54;2.50;68.00
24618;DHT22;12762;51.730;5.356;2023-02-28T04:41:21;2.50;68.00
24618;DHT22;12762;51.730;5.356;2023-02-28T04:43:51;2.50;68.10
24618;DHT22;12762;51.730;5.356;2023-02-28T04:46:19;2.50;68.20
24618;DHT22;12762;51.730;5.356;2023-02-28T04:48:46;2.50;68.20
24618;DHT22;12762;51.730;5.356;2023-02-28T04:51:16;2.50;68.20
24618;DHT22;12762;51.730;5.356;2023-02-28T04:53:47;2.50;68.30
24618;DHT22;12762;51.730;5.356;2023-02-28T04:56:15;2.50;68.20
24618;DHT22;12762;51.730;5.356;2023-02-28T04:58:43;2.50;68.30
24618;DHT22;12762;51.730;5.356;2023-02-28T05:01:30;2.50;68.30
24618;DHT22;12762;51.730;5.356;2023-02-28T05:04:03;2.60;68.40
24618;DHT22;12762;51.730;5.356;2023-02-28T05:06:32;2.60;68.50
24618;DHT22;12762;51.730;5.356;2023-02-28T05:08:59;2.60;68.30
24618;DHT22;12762;51.730;5.356;2023-02-28T05:11:32;2.60;68.30
24618;DHT22;12762;51.730;5.356;2023-02-28T05:14:04;2.60;68.30
24618;DHT22;12762;51.730;5.356;2023-02-28T05:16:31;2.60;68.30
24618;DHT22;12762;51.730;5.356;2023-02-28T05:18:58;2.60;69.20
24618;DHT22;12762;51.730;5.356;2023-02-28T05:21:31;2.60;68.30
24618;DHT22;12762;51.730;5.356;2023-02-28T05:24:03;2.60;68.40
24618;DHT22;12762;51.730;5.356;2023-02-28T05:26:33;2.60;68.40
24618;DHT22;12762;51.730;5.356;2023-02-28T05:29:00;2.60;68.40
24618;DHT22;12762;51.730;5.356;2023-02-28T05:31:27;2.60;68.30
24618;DHT22;12762;51.730;5.356;2023-02-28T05:33:57;2.60;68.40
24618;DHT22;12762;51.730;5.356;2023-02-28T05:36:24;2.70;68.40
24618;DHT22;12762;51.730;5.356;2023-02-28T05:38:51;2.70;68.50
24618;DHT22;12762;51.730;5.356;2023-02-28T05:41:19;2.70;68.40
24618;DHT22;12762;51.730;5.356;2023-02-28T05:43:47;2.70;68.50
24618;DHT22;12762;51.730;5.356;2023-02-28T05:46:15;2.70;68.50
24618;DHT22;12762;51.730;5.356;2023-02-28T05:48:45;2.70;68.50
24618;DHT22;12762;51.730;5.356;2023-02-28T05:51:12;2.70;68.40
24618;DHT22;12762;51.730;5.356;2023-02-28T05:53:39;2.70;68.50
24618;DHT22;12762;51.730;5.356;2023-02-28T05:56:06;2.70;68.40
24618;DHT22;12762;51.730;5.356;2023-02-28T05:58:33;2.70;68.40
24618;DHT22;12762;51.730;5.356;2023-02-28T06:01:23;2.70;68.40
24618;DHT22;12762;51.730;5.356;2023-02-28T06:03:50;2.70;68.40
24618;DHT22;12762;51.730;5.356;2023-02-28T06:06:17;2.70;68.40
24618;DHT22;12762;51.730;5.356;2023-02-28T06:08:44;2.70;68.30
24618;DHT22;12762;51.730;5.356;2023-02-28T06:11:12;2.70;68.40
24618;DHT22;12762;51.730;5.356;2023-02-28T06:13:40;2.70;68.30
24618;DHT22;12762;51.730;5.356;2023-02-28T06:16:09;2.70;68.30
24618;DHT22;12762;51.730;5.356;2023-02-28T06:18:37;2.70;68.30
24618;DHT22;12762;51.730;5.356;2023-02-28T06:21:04;2.70;68.30
24618;DHT22;12762;51.730;5.356;2023-02-28T06:23:31;2.80;68.50
24618;DHT22;12762;51.730;5.356;2023-02-28T06:25:57;2.80;68.40
24618;DHT22;12762;51.730;5.356;2023-02-28T06:28:25;2.80;68.40
24618;DHT22;12762;51.730;5.356;2023-02-28T06:30:52;2.80;68.40
24618;DHT22;12762;51.730;5.356;2023-02-28T06:33:19;2.80;68.40
24618;DHT22;12762;51.730;5.356;2023-02-28T06:35:49;2.80;68.40
24618;DHT22;12762;51.730;5.356;2023-02-28T06:38:19;2.80;68.40
24618;DHT22;12762;51.730;5.356;2023-02-28T06:40:53;2.80;68.30
24618;DHT22;12762;51.730;5.356;2023-02-28T06:43:21;2.90;68.50
24618;DHT22;12762;51.730;5.356;2023-02-28T06:45:48;2.90;68.40
24618;DHT22;12762;51.730;5.356;2023-02-28T06:48:15;2.90;68.40
24618;DHT22;12762;51.730;5.356;2023-02-28T06:50:41;3.00;68.50
24618;DHT22;12762;51.730;5.356;2023-02-28T06:53:08;3.00;68.50
24618;DHT22;12762;51.730;5.356;2023-02-28T06:55:40;3.00;68.40
24618;DHT22;12762;51.730;5.356;2023-02-28T06:58:07;3.00;68.40
24618;DHT22;12762;51.730;5.356;2023-02-28T07:00:42;3.00;68.40
24618;DHT22;12762;51.730;5.356;2023-02-28T07:03:11;3.00;68.40
24618;DHT22;12762;51.730;5.356;2023-02-28T07:05:39;3.00;68.40
24618;DHT22;12762;51.730;5.356;2023-02-28T07:08:06;3.10;68.40
24618;DHT22;12762;51.730;5.356;2023-02-28T07:10:37;3.10;68.40
24618;DHT22;12762;51.730;5.356;2023-02-28T07:13:05;3.10;68.40
24618;DHT22;12762;51.730;5.356;2023-02-28T07:15:32;3.10;68.40
24618;DHT22;12762;51.730;5.356;2023-02-28T07:18:01;3.20;68.50
24618;DHT22;12762;51.730;5.356;2023-02-28T07:20:28;3.20;68.50
24618;DHT22;12762;51.730;5.356;2023-02-28T07:22:55;3.20;68.50
24618;DHT22;12762;51.730;5.356;2023-02-28T07:25:26;3.30;68.50
24618;DHT22;12762;51.730;5.356;2023-02-28T07:27:55;3.30;68.60
24618;DHT22;12762;51.730;5.356;2023-02-28T07:30:22;3.40;68.60
24618;DHT22;12762;51.730;5.356;2023-02-28T07:32:49;3.50;68.60
24618;DHT22;12762;51.730;5.356;2023-02-28T07:35:16;3.50;68.50
24618;DHT22;12762;51.730;5.356;2023-02-28T07:37:44;3.50;68.50
24618;DHT22;12762;51.730;5.356;2023-02-28T07:40:11;3.60;68.50
24618;DHT22;12762;51.730;5.356;2023-02-28T07:42:40;3.70;68.60
24618;DHT22;12762;51.730;5.356;2023-02-28T07:45:08;3.70;68.60
24618;DHT22;12762;51.730;5.356;2023-02-28T07:47:38;3.80;68.50
24618;DHT22;12762;51.730;5.356;2023-02-28T07:50:07;3.90;68.50
24618;DHT22;12762;51.730;5.356;2023-02-28T07:52:34;4.00;68.50
24618;DHT22;12762;51.730;5.356;2023-02-28T07:55:03;4.10;68.50
24618;DHT22;12762;51.730;5.356;2023-02-28T07:57:31;4.10;68.40
24618;DHT22;12762;51.730;5.356;2023-02-28T08:00:05;4.20;68.40
24618;DHT22;12762;51.730;5.356;2023-02-28T08:02:33;4.30;68.40
24618;DHT22;12762;51.730;5.356;2023-02-28T08:05:00;4.40;68.40
24618;DHT22;12762;51.730;5.356;2023-02-28T08:07:27;4.50;68.40
24618;DHT22;12762;51.730;5.356;2023-02-28T08:09:54;4.60;68.30
24618;DHT22;12762;51.730;5.356;2023-02-28T08:12:24;4.70;68.10
24618;DHT22;12762;51.730;5.356;2023-02-28T08:14:53;4.70;67.90
24618;DHT22;12762;51.730;5.356;2023-02-28T08:17:20;4.80;67.90
24618;DHT22;12762;51.730;5.356;2023-02-28T08:19:47;4.80;67.50
24618;DHT22;12762;51.730;5.356;2023-02-28T08:22:14;4.80;66.80
24618;DHT22;12762;51.730;5.356;2023-02-28T08:24:41;4.80;66.60
24618;DHT22;12762;51.730;5.356;2023-02-28T08:27:10;4.90;66.50
24618;DHT22;12762;51.730;5.356;2023-02-28T08:29:38;4.90;66.30
24618;DHT22;12762;51.730;5.356;2023-02-28T08:32:06;5.00;66.20
24618;DHT22;12762;51.730;5.356;2023-02-28T08:34:45;5.10;66.00
24618;DHT22;12762;51.730;5.356;2023-02-28T08:37:13;5.20;66.00
24618;DHT22;12762;51.730;5.356;2023-02-28T08:39:43;5.50;66.00
24618;DHT22;12762;51.730;5.356;2023-02-28T08:42:10;5.90;65.90
24618;DHT22;12762;51.730;5.356;2023-02-28T08:44:37;6.40;65.80
24618;DHT22;12762;51.730;5.356;2023-02-28T08:47:04;6.70;64.80
24618;DHT22;12762;51.730;5.356;2023-02-28T08:49:34;7.50;65.20
24618;DHT22;12762;51.730;5.356;2023-02-28T08:52:01;8.70;64.90
24618;DHT22;12762;51.730;5.356;2023-02-28T08:54:27;9.30;62.60
24618;DHT22;12762;51.730;5.356;2023-02-28T08:56:57;9.30;60.90
24618;DHT22;12762;51.730;5.356;2023-02-28T08:59:23;9.10;59.70
24618;DHT22;12762;51.730;5.356;2023-02-28T09:01:50;8.80;58.10
24618;DHT22;12762;51.730;5.356;2023-02-28T09:04:17;8.60;58.90
24618;DHT22;12762;51.730;5.356;2023-02-28T09:06:49;8.50;58.50
24618;DHT22;12762;51.730;5.356;2023-02-28T09:09:16;8.50;58.90
24618;DHT22;12762;51.730;5.356;2023-02-28T09:11:43;8.60;59.30
24618;DHT22;12762;51.730;5.356;2023-02-28T09:14:10;8.60;57.90
24618;DHT22;12762;51.730;5.356;2023-02-28T09:16:37;8.50;53.80
24618;DHT22;12762;51.730;5.356;2023-02-28T09:19:04;8.40;56.50
24618;DHT22;12762;51.730;5.356;2023-02-28T09:21:31;8.30;55.60
24618;DHT22;12762;51.730;5.356;2023-02-28T09:23:58;8.20;53.20
24618;DHT22;12762;51.730;5.356;2023-02-28T09:26:26;8.20;55.10
24618;DHT22;12762;51.730;5.356;2023-02-28T09:29:04;8.20;52.30
24618;DHT22;12762;51.730;5.356;2023-02-28T09:31:31;8.20;51.80
24618;DHT22;12762;51.730;5.356;2023-02-28T09:34:01;8.40;53.40
24618;DHT22;12762;51.730;5.356;2023-02-28T09:36:28;8.60;54.60
24618;DHT22;12762;51.730;5.356;2023-02-28T09:39:10;8.80;55.40
24618;DHT22;12762;51.730;5.356;2023-02-28T09:41:42;8.90;53.30
24618;DHT22;12762;51.730;5.356;2023-02-28T09:44:41;8.90;53.60
24618;DHT22;12762;51.730;5.356;2023-02-28T09:47:30;9.00;55.50
24618;DHT22;12762;51.730;5.356;2023-02-28T09:50:29;9.10;55.90
24618;DHT22;12762;51.730;5.356;2023-02-28T09:52:56;9.20;55.20
24618;DHT22;12762;51.730;5.356;2023-02-28T09:58:01;8.90;51.70
24618;DHT22;12762;51.730;5.356;2023-02-28T10:00:33;8.80;51.60
24618;DHT22;12762;51.730;5.356;2023-02-28T10:11:01;8.60;53.60
24618;DHT22;12762;51.730;5.356;2023-02-28T10:16:14;8.40;50.40
24618;DHT22;12762;51.730;5.356;2023-02-28T10:18:47;8.30;53.60
24618;DHT22;12762;51.730;5.356;2023-02-28T10:21:28;8.40;54.80
24618;DHT22;12762;51.730;5.356;2023-02-28T10:26:38;8.90;53.60
24618;DHT22;12762;51.730;5.356;2023-02-28T10:29:08;8.90;53.00
24618;DHT22;12762;51.730;5.356;2023-02-28T10:31:35;9.10;53.60
24618;DHT22;12762;51.730;5.356;2023-02-28T10:34:02;9.10;52.60
24618;DHT22;12762;51.730;5.356;2023-02-28T10:36:30;9.00;52.60
24618;DHT22;12762;51.730;5.356;2023-02-28T10:39:00;9.10;53.50
24618;DHT22;12762;51.730;5.356;2023-02-28T10:41:32;9.20;53.70
24618;DHT22;12762;51.730;5.356;2023-02-28T10:44:21;9.30;53.90
24618;DHT22;12762;51.730;5.356;2023-02-28T10:46:49;9.60;54.40
24618;DHT22;12762;51.730;5.356;2023-02-28T10:49:25;9.80;54.20
24618;DHT22;12762;51.730;5.356;2023-02-28T10:52:00;9.90;54.10
24618;DHT22;12762;51.730;5.356;2023-02-28T10:54:31;10.10;53.10
24618;DHT22;12762;51.730;5.356;2023-02-28T10:57:06;10.20;52.10
24618;DHT22;12762;51.730;5.356;2023-02-28T10:59:33;10.20;49.40
24618;DHT22;12762;51.730;5.356;2023-02-28T11:02:00;10.10;51.20
24618;DHT22;12762;51.730;5.356;2023-02-28T11:07:00;10.30;52.10
24618;DHT22;12762;51.730;5.356;2023-02-28T11:09:48;10.40;52.20
24618;DHT22;12762;51.730;5.356;2023-02-28T11:12:33;10.50;49.50
24618;DHT22;12762;51.730;5.356;2023-02-28T11:15:21;10.40;50.10
24618;DHT22;12762;51.730;5.356;2023-02-28T11:20:29;10.30;49.10
24618;DHT22;12762;51.730;5.356;2023-02-28T11:22:59;10.20;48.30
24618;DHT22;12762;51.730;5.356;2023-02-28T11:25:36;10.00;48.90
24618;DHT22;12762;51.730;5.356;2023-02-28T11:28:06;10.00;50.00
24618;DHT22;12762;51.730;5.356;2023-02-28T11:31:17;10.10;50.40
24618;DHT22;12762;51.730;5.356;2023-02-28T11:33:50;10.20;50.60
24618;DHT22;12762;51.730;5.356;2023-02-28T11:36:27;10.40;51.20
24618;DHT22;12762;51.730;5.356;2023-02-28T11:38:59;10.50;50.70
24618;DHT22;12762;51.730;5.356;2023-02-28T11:52:55;11.10;50.20
24618;DHT22;12762;51.730;5.356;2023-02-28T11:58:21;10.90;48.80
24618;DHT22;12762;51.730;5.356;2023-02-28T12:04:17;11.00;49.50
24618;DHT22;12762;51.730;5.356;2023-02-28T12:07:14;11.10;50.30
24618;DHT22;12762;51.730;5.356;2023-02-28T12:18:17;11.40;48.00
24618;DHT22;12762;51.730;5.356;2023-02-28T12:20:59;11.40;49.20
24618;DHT22;12762;51.730;5.356;2023-02-28T12:28:50;11.50;49.50
24618;DHT22;12762;51.730;5.356;2023-02-28T12:31:35;11.60;49.00
24618;DHT22;12762;51.730;5.356;2023-02-28T12:34:10;11.60;49.40
24618;DHT22;12762;51.730;5.356;2023-02-28T12:36:41;11.70;49.30
24618;DHT22;12762;51.730;5.356;2023-02-28T12:39:30;11.80;49.50
24618;DHT22;12762;51.730;5.356;2023-02-28T12:43:03;11.90;49.20
24618;DHT22;12762;51.730;5.356;2023-02-28T12:45:42;11.90;49.10
24618;DHT22;12762;51.730;5.356;2023-02-28T12:49:00;12.00;49.50
24618;DHT22;12762;51.730;5.356;2023-02-28T12:51:01;12.10;49.30
24618;DHT22;12762;51.730;5.356;2023-02-28T12:56:21;12.30;49.20
24618;DHT22;12762;51.730;5.356;2023-02-28T12:58:58;12.30;48.70
24618;DHT22;12762;51.730;5.356;2023-02-28T13:12:53;12.20;48.10
24618;DHT22;12762;51.730;5.356;2023-02-28T13:15:24;12.20;48.00
24618;DHT22;12762;51.730;5.356;2023-02-28T13:17:54;12.20;47.50
24618;DHT22;12762;51.730;5.356;2023-02-28T13:20:27;12.20;47.60
24618;DHT22;12762;51.730;5.356;2023-02-28T13:22:55;12.20;47.80
24618;DHT22;12762;51.730;5.356;2023-02-28T13:28:13;12.30;47.70
24618;DHT22;12762;51.730;5.356;2023-02-28T13:31:03;12.30;47.60
24618;DHT22;12762;51.730;5.356;2023-02-28T13:33:35;12.40;47.70
24618;DHT22;12762;51.730;5.356;2023-02-28T13:38:44;12.40;47.60
24618;DHT22;12762;51.730;5.356;2023-02-28T13:41:44;12.40;47.70
24618;DHT22;12762;51.730;5.356;2023-02-28T14:03:28;12.50;47.00
24618;DHT22;12762;51.730;5.356;2023-02-28T14:06:22;12.40;47.00
24618;DHT22;12762;51.730;5.356;2023-02-28T14:09:15;12.40;47.10
24618;DHT22;12762;51.730;5.356;2023-02-28T14:11:45;12.30;46.90
24618;DHT22;12762;51.730;5.356;2023-02-28T14:17:07;12.30;46.90
24618;DHT22;12762;51.730;5.356;2023-02-28T14:19:37;12.30;46.80
24618;DHT22;12762;51.730;5.356;2023-02-28T14:22:16;12.30;46.60
24618;DHT22;12762;51.730;5.356;2023-02-28T14:25:38;12.20;46.10
24618;DHT22;12762;51.730;5.356;2023-02-28T14:30:57;12.20;46.40
24618;DHT22;12762;51.730;5.356;2023-02-28T14:38:40;12.10;46.00
24618;DHT22;12762;51.730;5.356;2023-02-28T14:41:18;12.10;46.00
24618;DHT22;12762;51.730;5.356;2023-02-28T14:44:00;12.10;46.70
24618;DHT22;12762;51.730;5.356;2023-02-28T14:46:36;12.00;45.80
24618;DHT22;12762;51.730;5.356;2023-02-28T14:49:05;11.90;45.90
24618;DHT22;12762;51.730;5.356;2023-02-28T14:51:33;11.90;46.00
24618;DHT22;12762;51.730;5.356;2023-02-28T14:54:02;11.90;45.90
24618;DHT22;12762;51.730;5.356;2023-02-28T14:56:37;11.90;45.60
24618;DHT22;12762;51.730;5.356;2023-02-28T14:59:05;11.90;45.60
24618;DHT22;12762;51.730;5.356;2023-02-28T15:01:47;11.80;45.50
24618;DHT22;12762;51.730;5.356;2023-02-28T15:04:26;11.80;45.80
24618;DHT22;12762;51.730;5.356;2023-02-28T15:07:14;11.70;45.40
24618;DHT22;12762;51.730;5.356;2023-02-28T15:09:41;11.70;44.70
24618;DHT22;12762;51.730;5.356;2023-02-28T15:12:13;11.60;45.20
24618;DHT22;12762;51.730;5.356;2023-02-28T15:14:46;11.40;45.00
24618;DHT22;12762;51.730;5.356;2023-02-28T15:17:23;11.30;45.20
24618;DHT22;12762;51.730;5.356;2023-02-28T15:19:52;11.20;45.20
24618;DHT22;12762;51.730;5.356;2023-02-28T15:22:28;11.20;45.30
24618;DHT22;12762;51.730;5.356;2023-02-28T15:24:57;11.10;45.20
24618;DHT22;12762;51.730;5.356;2023-02-28T15:27:30;10.90;45.20
24618;DHT22;12762;51.730;5.356;2023-02-28T15:30:04;11.00;45.40
24618;DHT22;12762;51.730;5.356;2023-02-28T15:32:34;11.10;45.90
24618;DHT22;12762;51.730;5.356;2023-02-28T15:35:27;11.40;45.90
24618;DHT22;12762;51.730;5.356;2023-02-28T15:40:37;12.10;45.80
24618;DHT22;12762;51.730;5.356;2023-02-28T15:43:17;12.30;45.30
24618;DHT22;12762;51.730;5.356;2023-02-28T15:45:56;12.50;44.90
24618;DHT22;12762;51.730;5.356;2023-02-28T15:48:45;12.60;44.60
24618;DHT22;12762;51.730;5.356;2023-02-28T15:51:22;12.50;44.00
24618;DHT22;12762;51.730;5.356;2023-02-28T15:54:07;12.20;43.60
24618;DHT22;12762;51.730;5.356;2023-02-28T15:56:45;11.80;43.30
24618;DHT22;12762;51.730;5.356;2023-02-28T15:59:16;11.40;43.30
24618;DHT22;12762;51.730;5.356;2023-02-28T16:01:45;11.00;43.40
24618;DHT22;12762;51.730;5.356;2023-02-28T16:04:18;10.70;43.60
24618;DHT22;12762;51.730;5.356;2023-02-28T16:07:05;10.40;43.60
24618;DHT22;12762;51.730;5.356;2023-02-28T16:09:35;10.10;43.90
24618;DHT22;12762;51.730;5.356;2023-02-28T16:12:02;9.90;45.00
24618;DHT22;12762;51.730;5.356;2023-02-28T16:14:32;9.70;45.10
24618;DHT22;12762;51.730;5.356;2023-02-28T16:17:07;9.50;45.20
24618;DHT22;12762;51.730;5.356;2023-02-28T16:19:35;9.30;45.20
24618;DHT22;12762;51.730;5.356;2023-02-28T16:22:02;9.10;45.50
24618;DHT22;12762;51.730;5.356;2023-02-28T16:24:31;9.00;45.60
24618;DHT22;12762;51.730;5.356;2023-02-28T16:26:59;8.90;45.70
24618;DHT22;12762;51.730;5.356;2023-02-28T16:29:34;8.80;45.90
24618;DHT22;12762;51.730;5.356;2023-02-28T16:32:07;8.60;45.90
24618;DHT22;12762;51.730;5.356;2023-02-28T16:34:35;8.50;46.00
24618;DHT22;12762;51.730;5.356;2023-02-28T16:37:03;8.40;46.00
24618;DHT22;12762;51.730;5.356;2023-02-28T16:39:34;8.30;46.20
24618;DHT22;12762;51.730;5.356;2023-02-28T16:42:00;8.20;46.20
24618;DHT22;12762;51.730;5.356;2023-02-28T16:44:34;8.00;46.20
24618;DHT22;12762;51.730;5.356;2023-02-28T16:47:05;7.90;46.30
24618;DHT22;12762;51.730;5.356;2023-02-28T16:49:31;7.90;46.50
24618;DHT22;12762;51.730;5.356;2023-02-28T16:51:58;7.70;46.60
24618;DHT22;12762;51.730;5.356;2023-02-28T16:54:25;7.70;46.80
24618;DHT22;12762;51.730;5.356;2023-02-28T16:56:53;7.60;46.80
24618;DHT22;12762;51.730;5.356;2023-02-28T16:59:24;7.50;46.90
24618;DHT22;12762;51.730;5.356;2023-02-28T17:01:53;7.40;47.10
24618;DHT22;12762;51.730;5.356;2023-02-28T17:04:20;7.30;47.20
24618;DHT22;12762;51.730;5.356;2023-02-28T17:06:47;7.20;47.20
24618;DHT22;12762;51.730;5.356;2023-02-28T17:09:22;7.10;47.30
24618;DHT22;12762;51.730;5.356;2023-02-28T17:11:56;7.00;47.30
24618;DHT22;12762;51.730;5.356;2023-02-28T17:14:23;6.90;47.40
24618;DHT22;12762;51.730;5.356;2023-02-28T17:16:50;6.80;47.50
24618;DHT22;12762;51.730;5.356;2023-02-28T17:19:17;6.70;47.60
24618;DHT22;12762;51.730;5.356;2023-02-28T17:21:47;6.60;47.60
24618;DHT22;12762;51.730;5.356;2023-02-28T17:24:13;6.50;47.70
24618;DHT22;12762;51.730;5.356;2023-02-28T17:26:55;6.50;48.50
24618;DHT22;12762;51.730;5.356;2023-02-28T17:29:22;6.40;47.90
24618;DHT22;12762;51.730;5.356;2023-02-28T17:31:53;6.30;48.00
24618;DHT22;12762;51.730;5.356;2023-02-28T17:34:21;6.20;48.00
24618;DHT22;12762;51.730;5.356;2023-02-28T17:36:49;6.10;48.80
24618;DHT22;12762;51.730;5.356;2023-02-28T17:39:18;6.00;48.30
24618;DHT22;12762;51.730;5.356;2023-02-28T17:41:51;5.90;48.30
24618;DHT22;12762;51.730;5.356;2023-02-28T17:44:19;5.80;48.40
24618;DHT22;12762;51.730;5.356;2023-02-28T17:46:47;5.70;48.60
24618;DHT22;12762;51.730;5.356;2023-02-28T17:49:14;5.60;48.60
24618;DHT22;12762;51.730;5.356;2023-02-28T17:51:41;5.50;48.60
24618;DHT22;12762;51.730;5.356;2023-02-28T17:54:11;5.50;48.80
24618;DHT22;12762;51.730;5.356;2023-02-28T17:56:42;5.40;48.80
24618;DHT22;12762;51.730;5.356;2023-02-28T17:59:11;5.30;48.90
24618;DHT22;12762;51.730;5.356;2023-02-28T18:01:38;5.30;49.00
24618;DHT22;12762;51.730;5.356;2023-02-28T18:04:05;5.20;49.10
24618;DHT22;12762;51.730;5.356;2023-02-28T18:06:37;5.10;49.10
24618;DHT22;12762;51.730;5.356;2023-02-28T18:09:15;5.10;49.20
24618;DHT22;12762;51.730;5.356;2023-02-28T18:11:42;5.00;49.20
24618;DHT22;12762;51.730;5.356;2023-02-28T18:14:11;4.90;49.20
24618;DHT22;12762;51.730;5.356;2023-02-28T18:16:38;4.90;49.40
24618;DHT22;12762;51.730;5.356;2023-02-28T18:19:05;4.80;49.30
24618;DHT22;12762;51.730;5.356;2023-02-28T18:21:32;4.80;49.40
24618;DHT22;12762;51.730;5.356;2023-02-28T18:23:59;4.70;49.40
24618;DHT22;12762;51.730;5.356;2023-02-28T18:26:26;4.60;49.40
24618;DHT22;12762;51.730;5.356;2023-02-28T18:28:53;4.50;49.40
24618;DHT22;12762;51.730;5.356;2023-02-28T18:31:20;4.50;49.50